Terminal Aerodrome Forecast
Issued by NWS

Home | Current Version | Previous Version | Text Only | Print | Product List | Glossary On
Versions: 1 2 3 4 5 6 7 8 9 10 11 12 13 14 15 16 17 18 19
000
FTUS46 KPDT 241700
TAFPSC
TAF
KPSC 241736Z 2418/2518 35006KT P6SM SCT150 BKN200
     FM242100 21008KT P6SM SCT080 BKN120
     FM250000 23006KT P6SM VCSH BKN050 OVC080
     FM250200 23012KT P6SM -RA BKN040 OVC070
     FM250900 25013KT P6SM VCSH SCT040 BKN070 OVC100
     FM251400 24007KT 6SM -RA BR BKN040 OVC060=

USA.gov is the U.S. government's official web portal to all federal, state and local government web resources and services.